Terminal Aerodrome Forecast
Issued by NWS Northern Indiana

Home | Current Version | Previous Version | Text Only | Print | Product List | Glossary On
Versions: 1 2 3 4 5 6 7 8 9 10 11 12 13 14 15 16
263
FTUS43 KIWX 162331
TAFFWA
TAF
KFWA 162331Z 1700/1724 24006KT 6SM -SHSN BKN015
     FM170130 25005KT P6SM SCT050
     FM171100 25005KT 6SM BR BKN035
     FM171600 25009KT P6SM SCT150=

USA.gov is the U.S. government's official web portal to all federal, state and local government web resources and services.